ENAT/ALF METAR and TAF weather

Enter ICAO airport designator
Station Type Date Time Source
ENAT METAR 2020/10/29 16:50 UTC NOAA

ENAT 291650Z VRB03KT 9999 BKN040 M03/M04 Q0997 RMK WIND 700FT VRB01KT


Station Type Date Time Source
ENAT Decoded METAR 2020/10/29 16:50 UTC NOAA

Alta Lufthavn, Norway (ENAT) 69-59N 023-22E 3M
Oct 29, 2020 - 12:50 PM EDT / 2020.10.29 1650 UTC
Wind: Variable at 3 MPH (3 KT):0
Visibility: greater than 7 mile(s):0
Sky conditions: mostly cloudy
Temperature: 26 F (-3 C)
Dew Point: 24 F (-4 C)
Relative Humidity: 92%
Pressure (altimeter): 29.44 in. Hg (0997 hPa)
ob: ENAT 291650Z VRB03KT 9999 BKN040 M03/M04 Q0997 RMK WIND 700FT VRB01KT
cycle: 17

Station Type Date Time Source
ENAT TAF 2008/11/30 23:00 UTC NOAA

TAF TAF ENAT 302300Z 3023/0102 22005KT 7000 -SN FEW008 BKN020
TEMPO 3023/0102 3000 -SN VV012

Example: see airport list